sensor_id;sensor_type;location;lat;lon;timestamp;pressure;altitude;pressure_sealevel;temperature;humidity
32324;BME280;25666;44.350;9.222;2023-07-13T06:45:06;101279.63;;;22.55;100.00
32324;BME280;25666;44.350;9.222;2023-07-13T06:47:32;101279.66;;;22.96;100.00
32324;BME280;25666;44.350;9.222;2023-07-13T06:49:57;101306.59;;;22.77;100.00
32324;BME280;25666;44.350;9.222;2023-07-13T06:52:23;101357.66;;;22.80;100.00
32324;BME280;25666;44.350;9.222;2023-07-13T06:54:48;101395.03;;;22.65;100.00
32324;BME280;25666;44.350;9.222;2023-07-13T06:57:14;101413.78;;;22.55;100.00
32324;BME280;25666;44.350;9.222;2023-07-13T06:59:39;101415.34;;;22.63;100.00
32324;BME280;25666;44.350;9.222;2023-07-13T07:02:05;101397.13;;;23.09;100.00
32324;BME280;25666;44.350;9.222;2023-07-13T07:04:31;101372.41;;;23.06;100.00
32324;BME280;25666;44.350;9.222;2023-07-13T07:06:56;101365.69;;;22.89;100.00
32324;BME280;25666;44.350;9.222;2023-07-13T07:09:22;101401.44;;;22.83;100.00
32324;BME280;25666;44.350;9.222;2023-07-13T07:11:47;101403.34;;;22.38;100.00
32324;BME280;25666;44.350;9.222;2023-07-13T07:14:13;101426.72;;;22.56;100.00
32324;BME280;25666;44.350;9.222;2023-07-13T07:16:38;101459.47;;;22.75;100.00
32324;BME280;25666;44.350;9.222;2023-07-13T07:19:04;101517.78;;;23.41;100.00
32324;BME280;25666;44.350;9.222;2023-07-13T07:21:29;101560.06;;;22.70;100.00
32324;BME280;25666;44.350;9.222;2023-07-13T07:23:56;101543.13;;;22.46;100.00
32324;BME280;25666;44.350;9.222;2023-07-13T07:26:22;101506.50;;;21.40;100.00
32324;BME280;25666;44.350;9.222;2023-07-13T07:28:47;101467.66;;;20.83;100.00
32324;BME280;25666;44.350;9.222;2023-07-13T07:31:13;101449.06;;;21.00;100.00
32324;BME280;25666;44.350;9.222;2023-07-13T07:33:38;101429.19;;;21.67;100.00
32324;BME280;25666;44.350;9.222;2023-07-13T07:36:04;101439.00;;;22.42;100.00
32324;BME280;25666;44.350;9.222;2023-07-13T07:38:29;101406.09;;;23.04;100.00
32324;BME280;25666;44.350;9.222;2023-07-13T07:40:55;101402.69;;;23.23;100.00
32324;BME280;25666;44.350;9.222;2023-07-13T07:43:20;101404.53;;;23.77;100.00
32324;BME280;25666;44.350;9.222;2023-07-13T07:45:46;101387.19;;;23.98;100.00
32324;BME280;25666;44.350;9.222;2023-07-13T07:48:11;101387.25;;;24.25;100.00
32324;BME280;25666;44.350;9.222;2023-07-13T07:50:38;101374.50;;;25.10;100.00
32324;BME280;25666;44.350;9.222;2023-07-13T07:53:05;101362.00;;;25.86;100.00
32324;BME280;25666;44.350;9.222;2023-07-13T07:55:34;101362.00;;;26.74;100.00
32324;BME280;25666;44.350;9.222;2023-07-13T07:58:00;101345.66;;;29.72;100.00
32324;BME280;25666;44.350;9.222;2023-07-13T08:00:26;101357.16;;;27.48;100.00
32324;BME280;25666;44.350;9.222;2023-07-13T08:02:53;101349.41;;;26.39;100.00
32324;BME280;25666;44.350;9.222;2023-07-13T08:05:18;101345.28;;;26.56;100.00
32324;BME280;25666;44.350;9.222;2023-07-13T08:07:44;101354.56;;;26.60;100.00
32324;BME280;25666;44.350;9.222;2023-07-13T08:10:10;101347.22;;;27.24;100.00
32324;BME280;25666;44.350;9.222;2023-07-13T08:12:39;101354.16;;;27.68;100.00
32324;BME280;25666;44.350;9.222;2023-07-13T08:15:07;101360.97;;;27.99;100.00
32324;BME280;25666;44.350;9.222;2023-07-13T08:17:35;101361.50;;;27.94;100.00
32324;BME280;25666;44.350;9.222;2023-07-13T08:20:01;101358.09;;;27.99;100.00
32324;BME280;25666;44.350;9.222;2023-07-13T08:22:27;101349.75;;;27.35;100.00
32324;BME280;25666;44.350;9.222;2023-07-13T08:24:52;101350.84;;;27.41;100.00
32324;BME280;25666;44.350;9.222;2023-07-13T08:27:25;101366.47;;;27.52;100.00
32324;BME280;25666;44.350;9.222;2023-07-13T08:29:52;101371.09;;;26.85;100.00
32324;BME280;25666;44.350;9.222;2023-07-13T08:32:19;101362.34;;;26.92;100.00
32324;BME280;25666;44.350;9.222;2023-07-13T08:34:45;101354.63;;;27.22;100.00
32324;BME280;25666;44.350;9.222;2023-07-13T08:37:10;101355.06;;;27.20;100.00
32324;BME280;25666;44.350;9.222;2023-07-13T08:39:36;101357.50;;;27.22;100.00
32324;BME280;25666;44.350;9.222;2023-07-13T08:42:06;101357.81;;;27.40;100.00
32324;BME280;25666;44.350;9.222;2023-07-13T08:47:40;101365.31;;;27.50;100.00
32324;BME280;25666;44.350;9.222;2023-07-13T08:50:12;101362.28;;;27.41;100.00
32324;BME280;25666;44.350;9.222;2023-07-13T08:52:40;101374.94;;;27.56;100.00
32324;BME280;25666;44.350;9.222;2023-07-13T08:55:24;101363.94;;;27.54;100.00
32324;BME280;25666;44.350;9.222;2023-07-13T08:58:12;101367.66;;;27.67;100.00
32324;BME280;25666;44.350;9.222;2023-07-13T09:00:52;101366.78;;;27.83;100.00
32324;BME280;25666;44.350;9.222;2023-07-13T09:03:25;101378.47;;;28.01;100.00
32324;BME280;25666;44.350;9.222;2023-07-13T09:05:57;101356.84;;;27.30;100.00
32324;BME280;25666;44.350;9.222;2023-07-13T09:08:42;101367.16;;;27.56;100.00
32324;BME280;25666;44.350;9.222;2023-07-13T09:13:55;101358.88;;;27.75;100.00
32324;BME280;25666;44.350;9.222;2023-07-13T09:16:22;101360.00;;;27.77;100.00
32324;BME280;25666;44.350;9.222;2023-07-13T09:18:50;101353.94;;;27.75;100.00
32324;BME280;25666;44.350;9.222;2023-07-13T09:21:22;101356.56;;;27.82;100.00
32324;BME280;25666;44.350;9.222;2023-07-13T09:23:53;101354.09;;;27.84;100.00
32324;BME280;25666;44.350;9.222;2023-07-13T09:26:23;101370.41;;;27.71;100.00
32324;BME280;25666;44.350;9.222;2023-07-13T09:29:03;101361.59;;;27.65;100.00
32324;BME280;25666;44.350;9.222;2023-07-13T09:31:52;101361.75;;;27.87;100.00
32324;BME280;25666;44.350;9.222;2023-07-13T09:34:19;101362.19;;;27.86;100.00
32324;BME280;25666;44.350;9.222;2023-07-13T09:36:44;101367.25;;;27.94;100.00
32324;BME280;25666;44.350;9.222;2023-07-13T09:39:14;101372.41;;;27.99;100.00
32324;BME280;25666;44.350;9.222;2023-07-13T09:41:58;101363.94;;;27.96;100.00
32324;BME280;25666;44.350;9.222;2023-07-13T09:44:37;101364.16;;;28.01;100.00
32324;BME280;25666;44.350;9.222;2023-07-13T09:47:14;101353.09;;;28.03;100.00
32324;BME280;25666;44.350;9.222;2023-07-13T09:49:41;101365.06;;;27.98;100.00
32324;BME280;25666;44.350;9.222;2023-07-13T09:52:12;101363.03;;;27.99;100.00
32324;BME280;25666;44.350;9.222;2023-07-13T09:54:39;101363.94;;;27.96;100.00
32324;BME280;25666;44.350;9.222;2023-07-13T09:57:16;101356.97;;;27.97;100.00
32324;BME280;25666;44.350;9.222;2023-07-13T09:59:48;101346.06;;;27.92;100.00
32324;BME280;25666;44.350;9.222;2023-07-13T10:02:32;101357.31;;;27.99;100.00
32324;BME280;25666;44.350;9.222;2023-07-13T10:05:13;101349.41;;;28.03;100.00
32324;BME280;25666;44.350;9.222;2023-07-13T10:07:43;101356.72;;;28.04;100.00
32324;BME280;25666;44.350;9.222;2023-07-13T10:10:17;101364.97;;;28.02;100.00
32324;BME280;25666;44.350;9.222;2023-07-13T10:12:43;101364.28;;;27.98;100.00
32324;BME280;25666;44.350;9.222;2023-07-13T10:15:23;101359.34;;;27.98;100.00
32324;BME280;25666;44.350;9.222;2023-07-13T10:17:55;101359.69;;;27.88;100.00
32324;BME280;25666;44.350;9.222;2023-07-13T10:20:25;101360.00;;;27.77;100.00
32324;BME280;25666;44.350;9.222;2023-07-13T10:22:59;101365.25;;;27.79;100.00
32324;BME280;25666;44.350;9.222;2023-07-13T10:25:32;101355.91;;;27.78;100.00
32324;BME280;25666;44.350;9.222;2023-07-13T10:30:49;101362.06;;;27.77;100.00
32324;BME280;25666;44.350;9.222;2023-07-13T10:33:15;101370.09;;;27.94;100.00
32324;BME280;25666;44.350;9.222;2023-07-13T10:35:43;101362.44;;;27.91;100.00
32324;BME280;25666;44.350;9.222;2023-07-13T10:38:18;101360.97;;;27.99;100.00
32324;BME280;25666;44.350;9.222;2023-07-13T10:40:56;101367.50;;;28.00;100.00
32324;BME280;25666;44.350;9.222;2023-07-13T10:43:44;101367.50;;;28.00;100.00
32324;BME280;25666;44.350;9.222;2023-07-13T10:46:14;101360.50;;;28.01;100.00
32324;BME280;25666;44.350;9.222;2023-07-13T10:48:42;101356.31;;;28.05;100.00
32324;BME280;25666;44.350;9.222;2023-07-13T10:51:10;101350.81;;;28.11;100.00
32324;BME280;25666;44.350;9.222;2023-07-13T10:53:38;101354.25;;;28.06;100.00
32324;BME280;25666;44.350;9.222;2023-07-13T10:56:28;101349.69;;;28.08;100.00
32324;BME280;25666;44.350;9.222;2023-07-13T10:59:17;101360.66;;;28.23;100.00
32324;BME280;25666;44.350;9.222;2023-07-13T11:04:14;101367.44;;;28.29;100.00
32324;BME280;25666;44.350;9.222;2023-07-13T11:06:42;101364.69;;;28.38;100.00
32324;BME280;25666;44.350;9.222;2023-07-13T11:12:25;101367.31;;;28.45;100.00
32324;BME280;25666;44.350;9.222;2023-07-13T11:17:50;101372.81;;;28.52;100.00
32324;BME280;25666;44.350;9.222;2023-07-13T11:22:46;101362.28;;;28.61;100.00
32324;BME280;25666;44.350;9.222;2023-07-13T11:27:46;101359.31;;;28.52;100.00
32324;BME280;25666;44.350;9.222;2023-07-13T11:33:22;101364.81;;;28.59;100.00
32324;BME280;25666;44.350;9.222;2023-07-13T11:38:21;101364.34;;;28.48;100.00
32324;BME280;25666;44.350;9.222;2023-07-13T11:40:48;101356.56;;;28.49;100.00
32324;BME280;25666;44.350;9.222;2023-07-13T11:43:16;101357.94;;;28.44;100.00
32324;BME280;25666;44.350;9.222;2023-07-13T11:45:43;101357.94;;;28.44;100.00
32324;BME280;25666;44.350;9.222;2023-07-13T11:48:27;101361.69;;;28.41;100.00
32324;BME280;25666;44.350;9.222;2023-07-13T11:50:58;101354.28;;;28.44;100.00
32324;BME280;25666;44.350;9.222;2023-07-13T11:53:26;101358.84;;;28.41;100.00
32324;BME280;25666;44.350;9.222;2023-07-13T11:55:52;101365.03;;;28.52;100.00
32324;BME280;25666;44.350;9.222;2023-07-13T11:58:22;101362.59;;;28.51;100.00
32324;BME280;25666;44.350;9.222;2023-07-13T12:00:49;101366.84;;;28.59;100.00
32324;BME280;25666;44.350;9.222;2023-07-13T12:03:19;101364.31;;;28.86;100.00
32324;BME280;25666;44.350;9.222;2023-07-13T12:06:03;101374.16;;;28.85;100.00
32324;BME280;25666;44.350;9.222;2023-07-13T12:08:31;101376.69;;;28.96;100.00
32324;BME280;25666;44.350;9.222;2023-07-13T12:11:05;101378.50;;;29.02;100.00
32324;BME280;25666;44.350;9.222;2023-07-13T12:13:37;101380.03;;;28.94;100.00
32324;BME280;25666;44.350;9.222;2023-07-13T12:16:15;101384.69;;;29.01;100.00
32324;BME280;25666;44.350;9.222;2023-07-13T12:18:43;101375.97;;;29.04;100.00
32324;BME280;25666;44.350;9.222;2023-07-13T12:21:17;101382.28;;;28.99;100.00
32324;BME280;25666;44.350;9.222;2023-07-13T12:23:44;101384.19;;;29.15;100.00
32324;BME280;25666;44.350;9.222;2023-07-13T12:26:12;101389.25;;;29.11;100.00
32324;BME280;25666;44.350;9.222;2023-07-13T12:28:54;101383.72;;;29.16;100.00
32324;BME280;25666;44.350;9.222;2023-07-13T12:34:08;101388.06;;;28.49;100.00
32324;BME280;25666;44.350;9.222;2023-07-13T12:36:40;101384.03;;;28.59;100.00
32324;BME280;25666;44.350;9.222;2023-07-13T12:39:19;101386.91;;;28.34;100.00
32324;BME280;25666;44.350;9.222;2023-07-13T12:41:47;101383.47;;;28.26;100.00
32324;BME280;25666;44.350;9.222;2023-07-13T12:44:30;101386.09;;;28.33;100.00
32324;BME280;25666;44.350;9.222;2023-07-13T12:46:59;101376.72;;;28.33;100.00
32324;BME280;25666;44.350;9.222;2023-07-13T12:49:30;101379.69;;;28.42;100.00
32324;BME280;25666;44.350;9.222;2023-07-13T12:51:59;101381.88;;;28.50;100.00
32324;BME280;25666;44.350;9.222;2023-07-13T12:54:26;101376.72;;;28.45;100.00
32324;BME280;25666;44.350;9.222;2023-07-13T12:56:53;101374.44;;;28.65;100.00
32324;BME280;25666;44.350;9.222;2023-07-13T12:59:21;101382.31;;;28.61;100.00
32324;BME280;25666;44.350;9.222;2023-07-13T13:01:48;101379.25;;;28.68;100.00
32324;BME280;25666;44.350;9.222;2023-07-13T13:04:15;101379.25;;;28.68;100.00
32324;BME280;25666;44.350;9.222;2023-07-13T13:06:41;101379.81;;;28.76;100.00
32324;BME280;25666;44.350;9.222;2023-07-13T13:09:14;101378.31;;;28.59;100.00
32324;BME280;25666;44.350;9.222;2023-07-13T13:11:40;101384.84;;;28.59;100.00
32324;BME280;25666;44.350;9.222;2023-07-13T13:14:06;101379.78;;;28.63;100.00
32324;BME280;25666;44.350;9.222;2023-07-13T13:16:35;101383.47;;;28.26;100.00
32324;BME280;25666;44.350;9.222;2023-07-13T13:19:20;101381.88;;;28.25;100.00
32324;BME280;25666;44.350;9.222;2023-07-13T13:21:47;101380.59;;;28.26;100.00
32324;BME280;25666;44.350;9.222;2023-07-13T13:24:22;101379.56;;;28.20;100.00
32324;BME280;25666;44.350;9.222;2023-07-13T13:26:50;101383.56;;;28.35;100.00
32324;BME280;25666;44.350;9.222;2023-07-13T13:29:22;101387.59;;;28.12;100.00
32324;BME280;25666;44.350;9.222;2023-07-13T13:31:52;101385.81;;;28.02;100.00
32324;BME280;25666;44.350;9.222;2023-07-13T13:34:18;101379.44;;;28.24;100.00
32324;BME280;25666;44.350;9.222;2023-07-13T13:36:46;101384.59;;;28.41;100.00
32324;BME280;25666;44.350;9.222;2023-07-13T13:39:25;101385.78;;;28.44;100.00
32324;BME280;25666;44.350;9.222;2023-07-13T13:41:53;101382.81;;;28.47;100.00
32324;BME280;25666;44.350;9.222;2023-07-13T13:44:21;101380.50;;;28.30;100.00
32324;BME280;25666;44.350;9.222;2023-07-13T13:46:49;101380.50;;;28.30;100.00
32324;BME280;25666;44.350;9.222;2023-07-13T13:49:18;101380.50;;;28.30;100.00
32324;BME280;25666;44.350;9.222;2023-07-13T13:51:44;101376.94;;;28.38;100.00
32324;BME280;25666;44.350;9.222;2023-07-13T13:54:12;101386.09;;;28.46;100.00
32324;BME280;25666;44.350;9.222;2023-07-13T13:56:38;101380.38;;;28.46;100.00
32324;BME280;25666;44.350;9.222;2023-07-13T13:59:04;101378.66;;;28.48;100.00
32324;BME280;25666;44.350;9.222;2023-07-13T14:01:31;101372.72;;;28.43;100.00
32324;BME280;25666;44.350;9.222;2023-07-13T14:03:56;101391.84;;;28.46;100.00
32324;BME280;25666;44.350;9.222;2023-07-13T14:06:22;101377.84;;;28.35;100.00
32324;BME280;25666;44.350;9.222;2023-07-13T14:08:48;101378.00;;;28.32;100.00
32324;BME280;25666;44.350;9.222;2023-07-13T14:11:16;101376.38;;;28.43;100.00
32324;BME280;25666;44.350;9.222;2023-07-13T14:13:49;101353.56;;;28.40;100.00
32324;BME280;25666;44.350;9.222;2023-07-13T14:16:17;101358.97;;;28.38;100.00
32324;BME280;25666;44.350;9.222;2023-07-13T14:18:46;101357.59;;;28.42;100.00
32324;BME280;25666;44.350;9.222;2023-07-13T14:21:13;101364.81;;;28.34;100.00
32324;BME280;25666;44.350;9.222;2023-07-13T14:23:40;101363.66;;;28.19;100.00
32324;BME280;25666;44.350;9.222;2023-07-13T14:26:17;101356.66;;;28.20;100.00
32324;BME280;25666;44.350;9.222;2023-07-13T14:28:46;101357.69;;;28.13;100.00
32324;BME280;25666;44.350;9.222;2023-07-13T14:31:13;101369.38;;;28.19;100.00
32324;BME280;25666;44.350;9.222;2023-07-13T14:33:39;101375.66;;;28.14;100.00
32324;BME280;25666;44.350;9.222;2023-07-13T14:38:44;101370.31;;;28.16;100.00
32324;BME280;25666;44.350;9.222;2023-07-13T14:41:10;101372.34;;;28.15;100.00
32324;BME280;25666;44.350;9.222;2023-07-13T14:43:36;101379.81;;;28.13;100.00
32324;BME280;25666;44.350;9.222;2023-07-13T14:46:01;101375.56;;;28.17;100.00
32324;BME280;25666;44.350;9.222;2023-07-13T14:48:27;101374.53;;;28.24;100.00
32324;BME280;25666;44.350;9.222;2023-07-13T14:50:59;101376.16;;;28.25;100.00
32324;BME280;25666;44.350;9.222;2023-07-13T14:53:26;101374.19;;;28.22;100.00
32324;BME280;25666;44.350;9.222;2023-07-13T14:55:54;101373.72;;;28.24;100.00
32324;BME280;25666;44.350;9.222;2023-07-13T14:58:20;101380.38;;;28.21;100.00
32324;BME280;25666;44.350;9.222;2023-07-13T15:00:45;101382.78;;;28.22;100.00
32324;BME280;25666;44.350;9.222;2023-07-13T15:03:20;101368.00;;;28.24;100.00
32324;BME280;25666;44.350;9.222;2023-07-13T15:05:47;101375.69;;;28.27;100.00
32324;BME280;25666;44.350;9.222;2023-07-13T15:08:13;101384.94;;;28.18;100.00
32324;BME280;25666;44.350;9.222;2023-07-13T15:10:38;101385.16;;;28.11;100.00
32324;BME280;25666;44.350;9.222;2023-07-13T15:13:18;101385.88;;;28.15;100.00
32324;BME280;25666;44.350;9.222;2023-07-13T15:15:50;101389.59;;;27.99;100.00
32324;BME280;25666;44.350;9.222;2023-07-13T15:18:19;101392.84;;;28.14;100.00
32324;BME280;25666;44.350;9.222;2023-07-13T15:20:47;101393.75;;;28.11;100.00
32324;BME280;25666;44.350;9.222;2023-07-13T15:23:15;101391.94;;;28.17;100.00
32324;BME280;25666;44.350;9.222;2023-07-13T15:25:42;101393.53;;;28.18;100.00
32324;BME280;25666;44.350;9.222;2023-07-13T15:28:09;101394.69;;;28.21;100.00
32324;BME280;25666;44.350;9.222;2023-07-13T15:30:40;101383.94;;;28.25;100.00
32324;BME280;25666;44.350;9.222;2023-07-13T15:33:16;101398.13;;;28.15;100.00
32324;BME280;25666;44.350;9.222;2023-07-13T15:35:45;101393.66;;;28.14;100.00
32324;BME280;25666;44.350;9.222;2023-07-13T15:38:18;101394.22;;;28.09;100.00
32324;BME280;25666;44.350;9.222;2023-07-13T15:40:44;101388.72;;;28.15;100.00
32324;BME280;25666;44.350;9.222;2023-07-13T15:43:14;101388.97;;;28.21;100.00
32324;BME280;25666;44.350;9.222;2023-07-13T15:45:40;101389.44;;;28.19;100.00
32324;BME280;25666;44.350;9.222;2023-07-13T15:48:22;101392.16;;;28.23;100.00
32324;BME280;25666;44.350;9.222;2023-07-13T15:50:50;101384.75;;;28.25;100.00
32324;BME280;25666;44.350;9.222;2023-07-13T15:53:22;101387.00;;;28.05;100.00
32324;BME280;25666;44.350;9.222;2023-07-13T15:55:49;101391.47;;;28.06;100.00
32324;BME280;25666;44.350;9.222;2023-07-13T15:58:15;101395.38;;;28.12;100.00
32324;BME280;25666;44.350;9.222;2023-07-13T16:00:41;101392.28;;;28.19;100.00
32324;BME280;25666;44.350;9.222;2023-07-13T16:03:07;101377.41;;;28.24;100.00
32324;BME280;25666;44.350;9.222;2023-07-13T16:05:33;101389.06;;;28.17;100.00
32324;BME280;25666;44.350;9.222;2023-07-13T16:07:59;101393.06;;;28.07;100.00
32324;BME280;25666;44.350;9.222;2023-07-13T16:10:31;101397.19;;;28.06;100.00
32324;BME280;25666;44.350;9.222;2023-07-13T16:12:57;101400.72;;;28.10;100.00
32324;BME280;25666;44.350;9.222;2023-07-13T16:15:23;101393.31;;;28.12;100.00
32324;BME280;25666;44.350;9.222;2023-07-13T16:17:49;101403.78;;;28.03;100.00
32324;BME280;25666;44.350;9.222;2023-07-13T16:20:17;101412.97;;;28.10;100.00
32324;BME280;25666;44.350;9.222;2023-07-13T16:22:47;101402.47;;;28.20;100.00
32324;BME280;25666;44.350;9.222;2023-07-13T16:25:24;101411.72;;;28.11;100.00
32324;BME280;25666;44.350;9.222;2023-07-13T16:27:53;101406.72;;;28.15;100.00
32324;BME280;25666;44.350;9.222;2023-07-13T16:32:49;101409.91;;;28.17;100.00
32324;BME280;25666;44.350;9.222;2023-07-13T16:35:19;101411.53;;;28.18;100.00
32324;BME280;25666;44.350;9.222;2023-07-13T16:37:45;101417.72;;;28.30;100.00
32324;BME280;25666;44.350;9.222;2023-07-13T16:40:32;101413.34;;;28.12;100.00
32324;BME280;25666;44.350;9.222;2023-07-13T16:42:58;101416.09;;;28.16;100.00
32324;BME280;25666;44.350;9.222;2023-07-13T16:45:26;101413.44;;;28.09;100.00
32324;BME280;25666;44.350;9.222;2023-07-13T16:47:56;101415.22;;;27.90;100.00
32324;BME280;25666;44.350;9.222;2023-07-13T16:50:24;101405.63;;;27.68;100.00
32324;BME280;25666;44.350;9.222;2023-07-13T16:52:51;101405.59;;;27.55;100.00
32324;BME280;25666;44.350;9.222;2023-07-13T16:55:19;101405.78;;;27.48;100.00
32324;BME280;25666;44.350;9.222;2023-07-13T16:57:53;101405.03;;;27.60;100.00
32324;BME280;25666;44.350;9.222;2023-07-13T17:00:25;101413.28;;;27.58;100.00
32324;BME280;25666;44.350;9.222;2023-07-13T17:03:05;101401.44;;;27.44;100.00
32324;BME280;25666;44.350;9.222;2023-07-13T17:05:36;101408.78;;;27.57;100.00
32324;BME280;25666;44.350;9.222;2023-07-13T17:10:50;101413.00;;;27.82;100.00
32324;BME280;25666;44.350;9.222;2023-07-13T17:13:17;101417.69;;;27.88;100.00
32324;BME280;25666;44.350;9.222;2023-07-13T17:15:49;101417.69;;;27.88;100.00
32324;BME280;25666;44.350;9.222;2023-07-13T17:18:29;101417.38;;;27.86;100.00
32324;BME280;25666;44.350;9.222;2023-07-13T17:21:04;101417.03;;;27.84;100.00
32324;BME280;25666;44.350;9.222;2023-07-13T17:23:30;101413.13;;;27.78;100.00
32324;BME280;25666;44.350;9.222;2023-07-13T17:26:00;101404.97;;;27.77;100.00
32324;BME280;25666;44.350;9.222;2023-07-13T17:28:25;101412.66;;;27.80;100.00
32324;BME280;25666;44.350;9.222;2023-07-13T17:30:53;101413.13;;;27.78;100.00
32324;BME280;25666;44.350;9.222;2023-07-13T17:33:26;101415.28;;;27.74;100.00
32324;BME280;25666;44.350;9.222;2023-07-13T17:35:56;101413.56;;;27.77;100.00
32324;BME280;25666;44.350;9.222;2023-07-13T17:38:30;101414.94;;;27.72;100.00
32324;BME280;25666;44.350;9.222;2023-07-13T17:40:56;101416.38;;;27.64;100.00
32324;BME280;25666;44.350;9.222;2023-07-13T17:43:21;101419.69;;;27.62;100.00
32324;BME280;25666;44.350;9.222;2023-07-13T17:45:48;101422.75;;;27.55;100.00
32324;BME280;25666;44.350;9.222;2023-07-13T17:48:14;101422.66;;;27.59;100.00
32324;BME280;25666;44.350;9.222;2023-07-13T17:50:40;101419.56;;;27.53;100.00
32324;BME280;25666;44.350;9.222;2023-07-13T17:53:17;101417.56;;;27.50;100.00
32324;BME280;25666;44.350;9.222;2023-07-13T17:55:44;101421.13;;;27.54;100.00
32324;BME280;25666;44.350;9.222;2023-07-13T17:58:10;101414.34;;;27.48;100.00
32324;BME280;25666;44.350;9.222;2023-07-13T18:00:38;101422.84;;;27.36;100.00
32324;BME280;25666;44.350;9.222;2023-07-13T18:03:20;101420.69;;;27.40;100.00
32324;BME280;25666;44.350;9.222;2023-07-13T18:05:47;101425.97;;;27.41;100.00
32324;BME280;25666;44.350;9.222;2023-07-13T18:08:26;101431.66;;;27.41;100.00
32324;BME280;25666;44.350;9.222;2023-07-13T18:10:53;101430.38;;;27.46;100.00
32324;BME280;25666;44.350;9.222;2023-07-13T18:13:20;101424.47;;;27.37;100.00
32324;BME280;25666;44.350;9.222;2023-07-13T18:15:47;101425.28;;;27.37;100.00
32324;BME280;25666;44.350;9.222;2023-07-13T18:18:13;101433.03;;;27.37;100.00
32324;BME280;25666;44.350;9.222;2023-07-13T18:20:39;101431.00;;;27.37;100.00
32324;BME280;25666;44.350;9.222;2023-07-13T18:23:21;101437.06;;;27.39;100.00
32324;BME280;25666;44.350;9.222;2023-07-13T18:25:47;101439.00;;;27.42;100.00
32324;BME280;25666;44.350;9.222;2023-07-13T18:28:15;101437.50;;;27.38;100.00
32324;BME280;25666;44.350;9.222;2023-07-13T18:30:42;101431.97;;;27.31;100.00
32324;BME280;25666;44.350;9.222;2023-07-13T18:33:30;101434.03;;;27.30;100.00
32324;BME280;25666;44.350;9.222;2023-07-13T18:36:02;101443.31;;;27.34;100.00
32324;BME280;25666;44.350;9.222;2023-07-13T18:38:29;101444.09;;;27.35;100.00
32324;BME280;25666;44.350;9.222;2023-07-13T18:40:56;101450.28;;;27.33;100.00
32324;BME280;25666;44.350;9.222;2023-07-13T18:43:23;101449.38;;;27.36;100.00
32324;BME280;25666;44.350;9.222;2023-07-13T18:45:58;101442.84;;;27.36;100.00
32324;BME280;25666;44.350;9.222;2023-07-13T18:48:26;101437.16;;;27.20;100.00
32324;BME280;25666;44.350;9.222;2023-07-13T18:50:57;101440.47;;;27.18;100.00
32324;BME280;25666;44.350;9.222;2023-07-13T18:53:23;101432.16;;;27.24;100.00
32324;BME280;25666;44.350;9.222;2023-07-13T18:55:49;101426.53;;;27.20;100.00
32324;BME280;25666;44.350;9.222;2023-07-13T18:58:15;101426.72;;;27.13;100.00
32324;BME280;25666;44.350;9.222;2023-07-13T19:00:51;101425.47;;;27.14;100.00
32324;BME280;25666;44.350;9.222;2023-07-13T19:03:24;101429.78;;;27.06;100.00
32324;BME280;25666;44.350;9.222;2023-07-13T19:05:51;101427.34;;;27.04;100.00
32324;BME280;25666;44.350;9.222;2023-07-13T19:08:19;101424.97;;;27.03;100.00
32324;BME280;25666;44.350;9.222;2023-07-13T19:10:49;101416.38;;;27.03;100.00
32324;BME280;25666;44.350;9.222;2023-07-13T19:13:24;101405.84;;;27.00;100.00
32324;BME280;25666;44.350;9.222;2023-07-13T19:15:51;101414.03;;;26.98;100.00
32324;BME280;25666;44.350;9.222;2023-07-13T19:18:18;101420.13;;;27.00;100.00
32324;BME280;25666;44.350;9.222;2023-07-13T19:20:49;101430.28;;;27.01;100.00
32324;BME280;25666;44.350;9.222;2023-07-13T19:23:37;101433.16;;;27.01;100.00
32324;BME280;25666;44.350;9.222;2023-07-13T19:28:43;101434.50;;;26.96;100.00
32324;BME280;25666;44.350;9.222;2023-07-13T19:31:27;101438.19;;;26.97;100.00
32324;BME280;25666;44.350;9.222;2023-07-13T19:33:56;101448.00;;;26.96;100.00
32324;BME280;25666;44.350;9.222;2023-07-13T19:36:24;101452.09;;;26.95;100.00
32324;BME280;25666;44.350;9.222;2023-07-13T19:38:51;101453.34;;;26.94;100.00
32324;BME280;25666;44.350;9.222;2023-07-13T19:41:22;101462.53;;;26.85;100.00
32324;BME280;25666;44.350;9.222;2023-07-13T19:43:50;101457.69;;;26.82;100.00
32324;BME280;25666;44.350;9.222;2023-07-13T19:46:28;101469.72;;;26.74;100.00
32324;BME280;25666;44.350;9.222;2023-07-13T19:48:54;101471.75;;;26.73;100.00
32324;BME280;25666;44.350;9.222;2023-07-13T19:51:20;101474.28;;;26.71;100.00
32324;BME280;25666;44.350;9.222;2023-07-13T19:53:48;101483.53;;;26.59;100.00
32324;BME280;25666;44.350;9.222;2023-07-13T19:56:14;101489.06;;;26.66;100.00
32324;BME280;25666;44.350;9.222;2023-07-13T19:58:40;101487.47;;;26.65;100.00
32324;BME280;25666;44.350;9.222;2023-07-13T20:01:06;101500.75;;;26.55;100.00
32324;BME280;25666;44.350;9.222;2023-07-13T20:03:31;101493.41;;;26.54;100.00
32324;BME280;25666;44.350;9.222;2023-07-13T20:05:57;101493.34;;;26.58;100.00
32324;BME280;25666;44.350;9.222;2023-07-13T20:08:23;101495.75;;;26.59;100.00
32324;BME280;25666;44.350;9.222;2023-07-13T20:10:51;101499.47;;;26.56;100.00
32324;BME280;25666;44.350;9.222;2023-07-13T20:13:17;101508.56;;;26.51;100.00
32324;BME280;25666;44.350;9.222;2023-07-13T20:15:46;101508.38;;;26.42;100.00
32324;BME280;25666;44.350;9.222;2023-07-13T20:18:14;101515.78;;;26.40;100.00